Item Display Status Serial CT Sensor

Mooring Depth: 1 m

 

Deployed Sensor

  • Serial Number: 8807
  • NDBC Property Number: 35222
  • Start Date: 4/26/2021 (13:28:09 Z)
  • End Date: Currently Active
Water Temperature [°C]     6 entries per hour
Showing data from 6/11/2022 (14:50:00 Z) to 6/10/2022 (00:00:01 Z)
Previous Next [ Day | 3-Days | 7-Days ]
First Last
Prev [ Day | 3-Days | 7-Days ] Next
First Last

Start Time:     :
End Time:     :     
Time (in GMT) :00 :50 :40 :30 :20 :10
Previous Next [ Day | 3-Days | 7-Days ]
First Last
Prev [ Day | 3-Days | 7-Days ] Next
First Last


123 => good data
MM => data is determined as missing
-- => data not received/configured
Back to Top Back to Top
6/11/2022 15:00 to 14:10 -- 24.574 24.571 24.573 24.578 24.572
6/11/2022 14:00 to 13:10 24.572 24.578 24.566 24.569 24.562 24.567
6/11/2022 13:00 to 12:10 24.580 24.577 24.567 24.565 24.566 24.570
6/11/2022 12:00 to 11:10 24.574 24.576 24.588 24.590 24.586 24.583
6/11/2022 11:00 to 10:10 24.581 24.584 24.580 24.575 24.575 24.587
6/11/2022 10:00 to 9:10 24.577 24.589 24.585 24.585 24.590 24.588
6/11/2022 09:00 to 8:10 24.587 24.589 24.584 24.585 24.588 24.594
6/11/2022 08:00 to 7:10 24.597 24.594 24.600 24.587 24.599 24.596
6/11/2022 07:00 to 6:10 24.608 24.609 24.614 24.618 24.614 24.611
6/11/2022 06:00 to 5:10 24.611 24.619 24.610 24.619 24.621 24.622
6/11/2022 05:00 to 4:10 24.622 24.629 24.633 24.641 24.640 24.651
6/11/2022 04:00 to 3:10 24.649 24.652 24.642 24.660 24.668 24.667
6/11/2022 03:00 to 2:10 24.659 24.661 24.667 24.673 24.675 24.680
6/11/2022 02:00 to 1:10 24.682 24.690 24.695 24.705 24.708 24.710
6/11/2022 01:00 to 0:10 24.726 24.714 24.730 24.721 24.729 24.745
6/11/2022 00:00 to 23:10 24.766 24.784 24.757 24.793 24.795 24.837
6/10/2022 23:00 to 22:10 24.837 24.836 24.846 24.823 24.832 24.838
6/10/2022 22:00 to 21:10 24.840 24.848 24.847 24.803 24.808 24.794
6/10/2022 21:00 to 20:10 24.768 24.770 24.740 24.730 24.718 24.712
6/10/2022 20:00 to 19:10 24.718 24.687 24.648 24.662 24.660 24.621
6/10/2022 19:00 to 18:10 24.634 24.629 24.618 24.591 24.562 24.567
6/10/2022 18:00 to 17:10 24.547 24.543 24.532 24.519 24.503 24.497
6/10/2022 17:00 to 16:10 24.490 24.473 24.464 24.456 24.458 24.438
6/10/2022 16:00 to 15:10 24.437 24.424 24.416 24.408 24.405 24.403
6/10/2022 15:00 to 14:10 24.396 24.388 24.391 24.388 24.384 24.387
6/10/2022 14:00 to 13:10 24.382 24.380 24.391 24.384 24.385 24.384
6/10/2022 13:00 to 12:10 24.387 24.385 24.389 24.393 24.392 24.391
6/10/2022 12:00 to 11:10 24.390 24.395 24.395 24.384 24.384 24.392
6/10/2022 11:00 to 10:10 24.384 24.382 24.386 24.392 24.389 24.386
6/10/2022 10:00 to 9:10 24.395 24.400 24.404 24.399 24.402 24.403
6/10/2022 09:00 to 8:10 24.400 24.400 24.398 24.398 24.404 --
6/10/2022 08:00 to 7:10 24.412 24.409 24.401 24.403 24.401 24.394
6/10/2022 07:00 to 6:10 24.388 24.398 24.402 24.418 24.420 24.419
6/10/2022 06:00 to 5:10 24.414 24.407 24.402 24.396 24.425 24.421
6/10/2022 05:00 to 4:10 24.425 24.419 24.435 24.446 24.430 24.436
6/10/2022 04:00 to 3:10 24.464 24.449 24.448 24.447 24.466 24.462
6/10/2022 03:00 to 2:10 24.477 24.482 24.492 24.503 24.519 24.517
6/10/2022 02:00 to 1:10 24.522 24.538 24.521 24.525 24.527 24.560
6/10/2022 01:00 to 0:10 24.568 24.606 24.598 24.604 24.601 24.635

 

 

 

Conductivity [S/m]     6 entries per hour
Showing data from 6/11/2022 (14:50:00 Z) to 6/10/2022 (00:00:01 Z)
Previous Next [ Day | 3-Days | 7-Days ]
First Last
Prev [ Day | 3-Days | 7-Days ] Next
First Last

Start Time:     :
End Time:     :     
Time (in GMT) :00 :50 :40 :30 :20 :10
Previous Next [ Day | 3-Days | 7-Days ]
First Last
Prev [ Day | 3-Days | 7-Days ] Next
First Last


123 => good data
MM => data is determined as missing
-- => data not received/configured
Back to Top Back to Top
6/11/2022 15:00 to 14:10 -- 5.22513 5.22475 5.22500 5.22579 5.22506
6/11/2022 14:00 to 13:10 5.22493 5.22546 5.22433 5.22467 5.22430 5.22494
6/11/2022 13:00 to 12:10 5.22590 5.22554 5.22498 5.22422 5.22412 5.22506
6/11/2022 12:00 to 11:10 5.22518 5.22558 5.22637 5.22646 5.22571 5.22568
6/11/2022 11:00 to 10:10 5.22582 5.22573 5.22534 5.22488 5.22497 5.22574
6/11/2022 10:00 to 9:10 5.22518 5.22635 5.22572 5.22589 5.22643 5.22588
6/11/2022 09:00 to 8:10 5.22590 5.22611 5.22570 5.22558 5.22579 5.22654
6/11/2022 08:00 to 7:10 5.22684 5.22644 5.22676 5.22577 5.22697 5.22666
6/11/2022 07:00 to 6:10 5.22780 5.22795 5.22843 5.22855 5.22824 5.22795
6/11/2022 06:00 to 5:10 5.22793 5.22866 5.22803 5.22874 5.22895 5.22907
6/11/2022 05:00 to 4:10 5.22893 5.22977 5.23021 5.23099 5.23098 5.23179
6/11/2022 04:00 to 3:10 5.23167 5.23201 5.23106 5.23285 5.23359 5.23359
6/11/2022 03:00 to 2:10 5.23279 5.23314 5.23368 5.23437 5.23458 5.23484
6/11/2022 02:00 to 1:10 5.23543 5.23621 5.23650 5.23727 5.23794 5.23798
6/11/2022 01:00 to 0:10 5.23972 5.23849 5.24028 5.23923 5.24037 5.24190
6/11/2022 00:00 to 23:10 5.24419 5.24604 5.24352 5.24721 5.24737 5.25163
6/10/2022 23:00 to 22:10 5.25161 5.25099 5.25305 5.25004 5.25103 5.25214
6/10/2022 22:00 to 21:10 5.25229 5.25326 5.25310 5.24897 5.24945 5.24747
6/10/2022 21:00 to 20:10 5.24519 5.24600 5.24209 5.24067 5.24002 5.23961
6/10/2022 20:00 to 19:10 5.24038 5.23676 5.23290 5.23441 5.23425 5.23002
6/10/2022 19:00 to 18:10 5.23136 5.23092 5.22960 5.22727 5.22410 5.22451
6/10/2022 18:00 to 17:10 5.22289 5.22214 5.22132 5.22003 5.21814 5.21726
6/10/2022 17:00 to 16:10 5.21706 5.21560 5.21416 5.21365 5.21320 5.21131
6/10/2022 16:00 to 15:10 5.21140 5.20985 5.20955 5.20817 5.20801 5.20776
6/10/2022 15:00 to 14:10 5.20722 5.20621 5.20671 5.20625 5.20619 5.20621
6/10/2022 14:00 to 13:10 5.20566 5.20510 5.20692 5.20577 5.20572 5.20552
6/10/2022 13:00 to 12:10 5.20555 5.20515 5.20579 5.20564 5.20573 5.20563
6/10/2022 12:00 to 11:10 5.20537 5.20555 5.20598 5.20459 5.20521 5.20550
6/10/2022 11:00 to 10:10 5.20426 5.20481 5.20514 5.20577 5.20571 5.20523
6/10/2022 10:00 to 9:10 5.20545 5.20603 5.20616 5.20586 5.20634 5.20604
6/10/2022 09:00 to 8:10 5.20541 5.20531 5.20566 5.20522 5.20642 5.20661
6/10/2022 08:00 to 7:10 5.20649 5.20602 5.20584 5.20557 5.20555 5.20507
6/10/2022 07:00 to 6:10 5.20417 5.20545 5.20552 5.20707 5.20680 5.20705
6/10/2022 06:00 to 5:10 5.20640 5.20567 5.20538 5.20443 5.20681 5.20624
6/10/2022 05:00 to 4:10 5.20671 5.20659 5.20776 5.20875 5.20753 5.20803
6/10/2022 04:00 to 3:10 5.21025 5.20909 5.20901 5.20867 5.21034 5.20990
6/10/2022 03:00 to 2:10 5.21122 5.21185 5.21280 5.21419 5.21536 5.21532
6/10/2022 02:00 to 1:10 5.21573 5.21731 5.21553 5.21601 5.21624 5.21931
6/10/2022 01:00 to 0:10 5.21997 5.22388 5.22302 5.22359 5.22333 5.22674

 

 

 

Salinity [psu]     6 entries per hour
Showing data from 6/11/2022 (14:50:00 Z) to 6/10/2022 (00:00:01 Z)
Previous Next [ Day | 3-Days | 7-Days ]
First Last
Prev [ Day | 3-Days | 7-Days ] Next
First Last

Start Time:     :
End Time:     :     
Time (in GMT) :00 :50 :40 :30 :20 :10
Previous Next [ Day | 3-Days | 7-Days ]
First Last
Prev [ Day | 3-Days | 7-Days ] Next
First Last


123 => good data
MM => data is determined as missing
-- => data not received/configured
Back to Top Back to Top
6/11/2022 15:00 to 14:10 -- 34.72 34.72 34.72 34.72 34.72
6/11/2022 14:00 to 13:10 34.72 34.72 34.72 34.72 34.72 34.72
6/11/2022 13:00 to 12:10 34.72 34.72 34.72 34.72 34.72 34.72
6/11/2022 12:00 to 11:10 34.72 34.72 34.72 34.72 34.71 34.72
6/11/2022 11:00 to 10:10 34.72 34.72 34.72 34.72 34.72 34.71
6/11/2022 10:00 to 9:10 34.72 34.72 34.72 34.72 34.72 34.71
6/11/2022 09:00 to 8:10 34.71 34.71 34.72 34.71 34.71 34.71
6/11/2022 08:00 to 7:10 34.71 34.71 34.71 34.71 34.71 34.71
6/11/2022 07:00 to 6:10 34.71 34.71 34.71 34.71 34.71 34.71
6/11/2022 06:00 to 5:10 34.71 34.71 34.71 34.71 34.71 34.71
6/11/2022 05:00 to 4:10 34.71 34.71 34.71 34.71 34.71 34.71
6/11/2022 04:00 to 3:10 34.71 34.71 34.71 34.71 34.71 34.71
6/11/2022 03:00 to 2:10 34.71 34.71 34.71 34.71 34.71 34.71
6/11/2022 02:00 to 1:10 34.71 34.71 34.71 34.71 34.71 34.71
6/11/2022 01:00 to 0:10 34.71 34.71 34.71 34.71 34.71 34.71
6/11/2022 00:00 to 23:10 34.71 34.71 34.72 34.71 34.71 34.71
6/10/2022 23:00 to 22:10 34.71 34.71 34.72 34.71 34.71 34.72
6/10/2022 22:00 to 21:10 34.72 34.72 34.72 34.72 34.72 34.72
6/10/2022 21:00 to 20:10 34.72 34.72 34.72 34.72 34.72 34.72
6/10/2022 20:00 to 19:10 34.72 34.72 34.72 34.72 34.72 34.72
6/10/2022 19:00 to 18:10 34.72 34.72 34.72 34.72 34.72 34.72
6/10/2022 18:00 to 17:10 34.72 34.72 34.72 34.72 34.72 34.72
6/10/2022 17:00 to 16:10 34.72 34.73 34.72 34.72 34.72 34.72
6/10/2022 16:00 to 15:10 34.72 34.72 34.72 34.72 34.72 34.72
6/10/2022 15:00 to 14:10 34.72 34.72 34.72 34.72 34.72 34.72
6/10/2022 14:00 to 13:10 34.72 34.72 34.72 34.72 34.72 34.72
6/10/2022 13:00 to 12:10 34.72 34.72 34.72 34.71 34.71 34.71
6/10/2022 12:00 to 11:10 34.71 34.71 34.71 34.71 34.72 34.71
6/10/2022 11:00 to 10:10 34.71 34.72 34.72 34.71 34.72 34.72
6/10/2022 10:00 to 9:10 34.71 34.71 34.71 34.71 34.71 34.71
6/10/2022 09:00 to 8:10 34.71 34.71 34.71 34.71 34.71 --
6/10/2022 08:00 to 7:10 34.71 34.70 34.71 34.71 34.71 34.71
6/10/2022 07:00 to 6:10 34.71 34.71 34.71 34.70 34.70 34.70
6/10/2022 06:00 to 5:10 34.70 34.70 34.70 34.70 34.70 34.70
6/10/2022 05:00 to 4:10 34.70 34.70 34.70 34.70 34.70 34.70
6/10/2022 04:00 to 3:10 34.69 34.70 34.70 34.69 34.69 34.69
6/10/2022 03:00 to 2:10 34.69 34.69 34.69 34.69 34.69 34.69
6/10/2022 02:00 to 1:10 34.69 34.69 34.69 34.69 34.69 34.69
6/10/2022 01:00 to 0:10 34.69 34.69 34.69 34.68 34.69 34.68